aviador You're here:

KDCM Decoded Metar

in _UNIDENTIFIED
Report Time2018-02-25 11:15:00
UTC Time2018-02-25 11:25:09
Flight Rules vfr VFR
Wind190° at 04 kt
W.Decomp.*RWY 17: 3.6 kt HW 1.8 kt RCW
RWY 23: 3.3 kt HW 2.2 kt LCW
W.Rank190° ranks 6
Current wind is below 190° avg. (4.6)
Visibility9999 m
Phenomena:N/A
Clouds:Scattered 070 Hf
Scattered 090 Hf
Expected CloudBase > 800 ft AGL from Temp-Dew spread
CeilingNone
Temp16°C (ISA +2)
Dew Point14°C (88% RH)
AAT15.8°C
QNH1018 hPa
Density Alt974 ft
Elevation656 ft
Report Wrong Elevation
Raw Report
KDCM 251115Z AUTO 19004KT 10SM SCT070 SCT090 16/14 A3006 RMK
AO2=

Extra information for KDCM:More info

Metar Taf Metar & Taf Last 4 Metars F.Rules Stats Wind Profile Meteogram Temp Stats Metar ALERT Operation Metar Decoded Social comments